createdAt,value
2022-09-05T00:01:37.546Z,2.20
2022-09-05T00:04:23.929Z,2.10
2022-09-05T00:07:38.829Z,2.03
2022-09-05T00:10:12.197Z,2.00
2022-09-05T00:12:41.009Z,2.00
2022-09-05T00:15:18.263Z,2.10
2022-09-05T00:20:36.166Z,2.00
2022-09-05T00:24:25.524Z,2.30
2022-09-05T00:24:36.645Z,2.05
2022-09-05T00:27:03.682Z,2.05
2022-09-05T00:31:07.859Z,2.10
2022-09-05T00:32:56.195Z,2.22
2022-09-05T00:35:41.734Z,2.08
2022-09-05T00:38:22.333Z,2.40
2022-09-05T00:41:14.443Z,2.20
2022-09-05T00:43:45.410Z,2.17
2022-09-05T00:49:09.656Z,2.20
2022-09-05T00:51:52.163Z,2.10
2022-09-05T00:54:51.883Z,2.20
2022-09-05T00:57:56.217Z,1.95
2022-09-05T01:00:45.576Z,2.20
2022-09-05T01:03:42.914Z,2.03
2022-09-05T01:06:28.320Z,2.00
2022-09-05T01:09:14.505Z,2.17
2022-09-05T01:11:52.657Z,2.17
2022-09-05T01:14:54.497Z,2.03
2022-09-05T01:17:33.554Z,2.10
2022-09-05T01:20:19.303Z,2.03
2022-09-05T01:23:13.834Z,2.30
2022-09-05T01:26:05.945Z,2.03
2022-09-05T01:29:15.631Z,2.20
2022-09-05T01:31:45.141Z,2.15
2022-09-05T01:34:38.078Z,2.20
2022-09-05T01:37:26.633Z,1.88
2022-09-05T01:40:36.969Z,2.10
2022-09-05T01:43:23.977Z,2.03
2022-09-05T01:46:10.203Z,1.83
2022-09-05T01:49:01.737Z,2.00
2022-09-05T01:51:35.297Z,2.20
2022-09-05T01:54:33.003Z,2.20
2022-09-05T01:57:03.261Z,2.33
2022-09-05T02:00:07.018Z,2.40
2022-09-05T02:02:39.329Z,2.10
2022-09-05T02:05:26.133Z,2.03
2022-09-05T02:08:15.864Z,2.03
2022-09-05T02:10:55.556Z,1.98
2022-09-05T02:13:35.271Z,2.20
2022-09-05T02:16:29.046Z,2.00
2022-09-05T02:19:15.161Z,2.00
2022-09-05T02:21:56.468Z,2.20
2022-09-05T02:24:33.129Z,2.08
2022-09-05T02:28:02.105Z,2.00
2022-09-05T02:30:23.560Z,2.08
2022-09-05T02:33:09.236Z,2.05
2022-09-05T02:36:07.965Z,2.20
2022-09-05T02:45:00.498Z,2.00
2022-09-05T02:45:19.182Z,2.08
2022-09-05T02:45:21.088Z,2.20
2022-09-05T02:48:15.429Z,2.00
2022-09-05T02:57:28.670Z,1.90
2022-09-05T02:57:33.577Z,2.13
2022-09-05T02:57:35.916Z,2.08
2022-09-05T03:00:22.150Z,2.17
2022-09-05T03:03:06.101Z,1.85
2022-09-05T03:05:40.726Z,2.10
2022-09-05T03:08:31.156Z,2.00
2022-09-05T03:11:45.021Z,2.20
2022-09-05T03:14:53.327Z,2.08
2022-09-05T03:18:20.652Z,2.28
2022-09-05T03:21:09.713Z,2.03
2022-09-05T03:24:14.444Z,2.05
2022-09-05T03:27:06.552Z,1.95
2022-09-05T03:29:58.514Z,2.40
2022-09-05T03:32:51.935Z,2.13
2022-09-05T03:35:41.228Z,2.05
2022-09-05T03:38:47.369Z,2.47
2022-09-05T03:41:40.610Z,2.08
2022-09-05T03:44:29.629Z,2.00
2022-09-05T03:47:17.808Z,2.10
2022-09-05T03:52:53.439Z,2.10
2022-09-05T03:57:26.494Z,2.22
2022-09-05T03:57:26.662Z,2.17
2022-09-05T03:59:43.933Z,2.00
2022-09-05T04:03:10.607Z,2.67
2022-09-05T04:08:28.482Z,2.10
2022-09-05T04:08:31.880Z,2.25
2022-09-05T04:11:35.733Z,2.10
2022-09-05T04:14:48.994Z,2.20
2022-09-05T04:17:29.416Z,2.15
2022-09-05T04:20:15.203Z,2.10
2022-09-05T04:23:06.253Z,2.10
2022-09-05T04:26:12.140Z,2.38
2022-09-05T04:29:15.284Z,2.40
2022-09-05T04:32:15.428Z,2.35
2022-09-05T04:35:05.101Z,2.50
2022-09-05T04:37:47.936Z,2.10
2022-09-05T04:40:42.084Z,2.50
2022-09-05T04:43:27.884Z,2.13
2022-09-05T04:46:21.783Z,2.20
2022-09-05T04:49:02.071Z,2.15
2022-09-05T04:52:00.859Z,2.25
2022-09-05T04:54:54.713Z,2.10
2022-09-05T04:57:22.116Z,2.10
2022-09-05T05:04:15.335Z,2.20
2022-09-05T05:06:16.909Z,2.55
2022-09-05T05:09:15.750Z,2.10
2022-09-05T05:17:54.816Z,2.33
2022-09-05T05:18:14.074Z,2.30
2022-09-05T05:18:41.062Z,2.60
2022-09-05T05:21:09.137Z,2.30
2022-09-05T05:23:41.148Z,2.00
2022-09-05T05:26:21.399Z,2.35
2022-09-05T05:29:15.277Z,2.10
2022-09-05T05:31:54.157Z,2.30
2022-09-05T05:34:29.179Z,2.20
2022-09-05T05:37:12.362Z,2.05
2022-09-05T05:39:57.954Z,2.10
2022-09-05T05:42:25.675Z,2.13
2022-09-05T05:44:59.216Z,2.00
2022-09-05T05:47:38.128Z,2.30
2022-09-05T05:50:14.580Z,2.33
2022-09-05T05:52:57.094Z,2.05
2022-09-05T05:56:02.747Z,2.38
2022-09-05T05:58:57.679Z,2.10
2022-09-05T06:01:54.065Z,2.05
2022-09-05T06:04:49.441Z,2.20
2022-09-05T06:09:14.123Z,2.38
2022-09-05T06:14:55.594Z,2.30
2022-09-05T06:14:58.422Z,2.00
2022-09-05T06:17:48.337Z,2.42
2022-09-05T06:22:04.441Z,2.13
2022-09-05T06:23:33.468Z,2.30
2022-09-05T06:26:21.365Z,2.35
2022-09-05T06:29:03.621Z,2.38
2022-09-05T06:31:52.847Z,2.33
2022-09-05T06:35:00.021Z,2.20
2022-09-05T06:37:44.488Z,2.22
2022-09-05T06:40:39.135Z,2.22
2022-09-05T06:43:09.586Z,2.35
2022-09-05T06:46:01.790Z,2.10
2022-09-05T06:49:30.010Z,2.03
2022-09-05T06:51:44.749Z,2.22
2022-09-05T06:54:24.390Z,2.30
2022-09-05T06:57:11.308Z,2.40
2022-09-05T07:00:30.259Z,2.10
2022-09-05T07:03:13.567Z,2.10
2022-09-05T07:05:58.913Z,2.30
2022-09-05T07:08:44.557Z,2.50
2022-09-05T07:11:21.330Z,2.33
2022-09-05T07:13:54.948Z,2.33
2022-09-05T07:16:37.883Z,2.20
2022-09-05T07:19:27.786Z,2.10
2022-09-05T07:22:46.290Z,2.35
2022-09-05T07:25:18.390Z,2.00
2022-09-05T07:28:29.403Z,2.30
2022-09-05T07:31:00.941Z,2.30
2022-09-05T07:33:31.342Z,2.30
2022-09-05T07:36:10.615Z,2.10
2022-09-05T07:38:52.687Z,2.28
2022-09-05T07:41:33.128Z,2.08
2022-09-05T07:44:09.773Z,2.20
2022-09-05T07:46:42.190Z,2.60
2022-09-05T07:49:16.488Z,2.10
2022-09-05T07:56:48.886Z,2.35
2022-09-05T07:57:10.320Z,2.20
2022-09-05T07:57:51.901Z,2.30
2022-09-05T08:00:26.648Z,2.30
2022-09-05T08:03:08.936Z,2.00
2022-09-05T08:05:59.642Z,2.20
2022-09-05T08:09:18.107Z,2.25
2022-09-05T08:11:38.996Z,2.50
2022-09-05T08:14:44.601Z,2.40
2022-09-05T08:17:08.911Z,2.33
2022-09-05T08:19:42.201Z,2.33
2022-09-05T08:22:21.287Z,2.50
2022-09-05T08:25:06.144Z,2.70
2022-09-05T08:28:04.048Z,2.58
2022-09-05T08:30:39.913Z,2.28
2022-09-05T08:33:23.729Z,2.40
2022-09-05T08:36:08.575Z,2.60
2022-09-05T08:38:40.949Z,2.17
2022-09-05T08:41:26.036Z,2.72
2022-09-05T08:46:40.604Z,2.20
2022-09-05T08:47:45.409Z,2.17
2022-09-05T08:50:26.972Z,2.40
2022-09-05T08:53:26.931Z,2.40
2022-09-05T08:56:10.395Z,2.22
2022-09-05T08:59:27.624Z,2.10
2022-09-05T09:02:47.003Z,2.30
2022-09-05T09:05:22.046Z,2.40
2022-09-05T09:07:57.106Z,3.22
2022-09-05T09:10:39.769Z,2.70
2022-09-05T09:13:09.933Z,2.60
2022-09-05T09:15:40.198Z,2.73
2022-09-05T09:18:16.485Z,2.63
2022-09-05T09:21:21.830Z,2.58
2022-09-05T09:23:49.237Z,3.13
2022-09-05T09:26:18.265Z,3.08
2022-09-05T09:29:04.327Z,2.72
2022-09-05T09:31:59.069Z,2.95
2022-09-05T09:34:26.474Z,2.60
2022-09-05T09:37:15.146Z,3.20
2022-09-05T09:40:00.687Z,2.70
2022-09-05T09:42:52.580Z,2.50
2022-09-05T09:45:44.503Z,2.70
2022-09-05T09:48:29.962Z,2.83
2022-09-05T09:51:45.502Z,2.67
2022-09-05T09:54:16.616Z,2.75
2022-09-05T09:57:10.233Z,2.80
2022-09-05T10:00:01.733Z,2.80
2022-09-05T10:08:24.241Z,2.75
2022-09-05T10:10:45.884Z,2.63
2022-09-05T10:10:53.339Z,2.50
2022-09-05T10:12:29.036Z,2.30
2022-09-05T10:15:30.262Z,2.50
2022-09-05T10:18:21.906Z,2.50
2022-09-05T10:21:17.349Z,2.42
2022-09-05T10:23:50.907Z,2.40
2022-09-05T10:26:53.895Z,2.47
2022-09-05T10:29:46.235Z,2.40
2022-09-05T10:35:10.838Z,2.50
2022-09-05T10:35:26.403Z,2.40
2022-09-05T10:38:20.723Z,2.47
2022-09-05T10:41:20.903Z,2.33
2022-09-05T10:44:03.149Z,2.40
2022-09-05T10:46:51.150Z,2.20
2022-09-05T10:49:30.832Z,2.08
2022-09-05T10:52:19.086Z,2.20
2022-09-05T10:55:31.244Z,2.13
2022-09-05T10:58:01.192Z,2.20
2022-09-05T11:02:27.747Z,2.53
2022-09-05T11:04:11.640Z,2.28
2022-09-05T11:07:15.584Z,2.40
2022-09-05T11:10:17.510Z,2.10
2022-09-05T11:13:06.133Z,2.20
2022-09-05T11:16:05.026Z,2.40
2022-09-05T11:18:56.366Z,2.25
2022-09-05T11:21:46.229Z,2.33
2022-09-05T11:24:43.133Z,2.17
2022-09-05T11:27:26.794Z,2.20
2022-09-05T11:30:07.823Z,2.20
2022-09-05T11:39:45.663Z,2.17
2022-09-05T11:39:53.197Z,2.20
2022-09-05T11:40:03.787Z,2.20
2022-09-05T11:42:08.394Z,2.25
2022-09-05T11:47:41.004Z,2.40
2022-09-05T11:50:28.424Z,2.40
2022-09-05T11:53:43.500Z,2.22
2022-09-05T11:56:28.824Z,2.13
2022-09-05T11:59:34.271Z,2.53
2022-09-05T12:02:37.774Z,2.22
2022-09-05T12:05:48.388Z,2.00
2022-09-05T12:08:43.358Z,2.30
2022-09-05T12:11:44.845Z,2.13
2022-09-05T12:14:36.391Z,2.00
2022-09-05T12:17:35.590Z,2.22
2022-09-05T12:20:17.105Z,2.17
2022-09-05T12:23:49.258Z,2.30
2022-09-05T12:27:39.965Z,2.45
2022-09-05T12:29:29.406Z,2.28
2022-09-05T12:33:18.851Z,1.90
2022-09-05T12:36:07.463Z,2.28
2022-09-05T12:40:27.630Z,2.25
2022-09-05T12:41:43.261Z,2.10
2022-09-05T12:44:39.883Z,2.10
2022-09-05T12:47:19.452Z,2.33
2022-09-05T12:50:03.299Z,2.20
2022-09-05T12:52:50.258Z,2.13
2022-09-05T12:55:17.692Z,2.10
2022-09-05T13:02:29.425Z,2.33
2022-09-05T13:03:08.783Z,2.10
2022-09-05T13:03:59.041Z,2.10
2022-09-05T13:06:41.125Z,2.20
2022-09-05T13:09:17.364Z,1.77
2022-09-05T13:14:48.893Z,2.00
2022-09-05T13:15:22.693Z,2.05
2022-09-05T13:18:02.308Z,2.10
2022-09-05T13:20:35.122Z,1.80
2022-09-05T13:23:23.911Z,1.80
2022-09-05T13:26:05.886Z,2.03
2022-09-05T13:29:01.461Z,2.38
2022-09-05T13:37:53.839Z,2.10
2022-09-05T13:38:11.029Z,2.00
2022-09-05T13:38:21.158Z,2.05
2022-09-05T13:40:20.416Z,2.10
2022-09-05T13:46:11.223Z,2.20
2022-09-05T13:51:44.345Z,2.00
2022-09-05T13:54:33.121Z,2.10
2022-09-05T13:57:37.349Z,2.22
2022-09-05T14:00:26.924Z,2.28
2022-09-05T14:03:37.961Z,2.17
2022-09-05T14:11:55.675Z,2.30
2022-09-05T14:18:21.014Z,2.30
2022-09-05T14:21:18.356Z,2.10
2022-09-05T14:23:54.065Z,2.40
2022-09-05T14:26:30.428Z,2.30
2022-09-05T14:29:10.098Z,2.20
2022-09-05T14:37:46.137Z,2.10
2022-09-05T14:37:50.298Z,2.10
2022-09-05T14:38:15.926Z,2.08
2022-09-05T14:41:12.011Z,2.05
2022-09-05T14:44:17.207Z,2.30
2022-09-05T14:47:05.310Z,2.10
2022-09-05T14:49:52.351Z,2.38
2022-09-05T14:52:28.968Z,2.15
2022-09-05T15:02:46.451Z,2.13
2022-09-05T15:02:48.693Z,2.07
2022-09-05T15:06:39.479Z,2.15
2022-09-05T15:11:26.262Z,2.10
2022-09-05T15:12:24.453Z,2.00
2022-09-05T15:15:23.063Z,2.25
2022-09-05T15:18:14.737Z,2.00
2022-09-05T15:20:44.882Z,2.20
2022-09-05T15:23:24.666Z,2.20
2022-09-05T15:26:16.760Z,1.90
2022-09-05T15:28:51.207Z,2.00
2022-09-05T15:31:39.500Z,1.90
2022-09-05T15:34:31.944Z,2.10
2022-09-05T15:37:08.800Z,2.28
2022-09-05T15:39:46.970Z,2.20
2022-09-05T15:42:21.448Z,1.95
2022-09-05T15:45:09.721Z,2.25
2022-09-05T15:47:39.673Z,2.22
2022-09-05T15:50:21.789Z,2.47
2022-09-05T15:52:55.331Z,2.20
2022-09-05T15:55:27.791Z,1.98
2022-09-05T15:58:07.643Z,2.10
2022-09-05T16:00:48.147Z,2.20
2022-09-05T16:05:02.322Z,2.10
2022-09-05T16:10:35.354Z,1.90
2022-09-05T16:10:43.607Z,2.30
2022-09-05T16:12:14.071Z,2.10
2022-09-05T16:16:32.327Z,1.90
2022-09-05T16:23:29.338Z,1.98
2022-09-05T16:23:33.141Z,2.10
2022-09-05T16:24:06.792Z,2.10
2022-09-05T16:26:49.890Z,2.13
2022-09-05T16:29:26.667Z,2.08
2022-09-05T16:32:02.367Z,2.28
2022-09-05T16:34:37.842Z,2.10
2022-09-05T16:37:17.009Z,1.80
2022-09-05T16:40:16.618Z,2.00
2022-09-05T16:42:52.813Z,2.28
2022-09-05T16:45:47.659Z,2.20
2022-09-05T16:48:33.638Z,2.13
2022-09-05T16:51:15.376Z,1.95
2022-09-05T16:53:58.091Z,2.00
2022-09-05T16:56:35.614Z,1.98
2022-09-05T16:59:09.867Z,2.30
2022-09-05T17:02:06.608Z,2.13
2022-09-05T17:05:03.312Z,2.20
2022-09-05T17:07:54.451Z,2.15
2022-09-05T17:10:26.869Z,2.10
2022-09-05T17:12:55.772Z,1.90
2022-09-05T17:15:35.564Z,2.00
2022-09-05T17:18:20.467Z,2.25
2022-09-05T17:20:59.406Z,2.15
2022-09-05T17:29:15.150Z,1.80
2022-09-05T17:29:26.222Z,1.98
2022-09-05T17:32:49.694Z,2.20
2022-09-05T17:35:43.983Z,1.80
2022-09-05T17:38:17.223Z,2.38
2022-09-05T17:41:09.080Z,2.08
2022-09-05T17:43:39.601Z,2.00
2022-09-05T17:46:23.393Z,2.10
2022-09-05T17:49:17.562Z,1.85
2022-09-05T17:51:55.260Z,1.88
2022-09-05T17:54:31.334Z,2.08
2022-09-05T17:57:35.079Z,1.80
2022-09-05T18:00:49.605Z,1.88
2022-09-05T18:03:49.379Z,1.90
2022-09-05T18:06:18.319Z,1.98
2022-09-05T18:08:48.577Z,2.10
2022-09-05T18:11:25.250Z,1.85
2022-09-05T18:14:02.814Z,1.90
2022-09-05T18:16:42.165Z,2.17
2022-09-05T18:20:06.178Z,2.00
2022-09-05T18:22:40.901Z,1.95
2022-09-05T18:25:30.875Z,1.90
2022-09-05T18:28:10.409Z,2.30
2022-09-05T18:30:39.442Z,2.08
2022-09-05T18:33:53.687Z,1.92
2022-09-05T18:36:00.266Z,2.20
2022-09-05T18:38:50.922Z,2.15
2022-09-05T18:41:19.601Z,2.00
2022-09-05T18:44:12.942Z,1.95
2022-09-05T18:46:47.654Z,2.00
2022-09-05T18:50:22.698Z,2.08
2022-09-05T18:52:34.425Z,2.00
2022-09-05T18:55:26.694Z,2.30
2022-09-05T18:58:26.603Z,2.13
2022-09-05T19:01:13.736Z,1.95
2022-09-05T19:03:42.350Z,2.53
2022-09-05T19:06:35.893Z,2.20
2022-09-05T19:09:14.588Z,2.10
2022-09-05T19:11:52.937Z,2.42
2022-09-05T19:14:49.792Z,2.20
2022-09-05T19:17:31.247Z,2.15
2022-09-05T19:20:31.490Z,2.10
2022-09-05T19:23:11.237Z,2.23
2022-09-05T19:25:45.180Z,2.10
2022-09-05T19:36:46.968Z,2.20
2022-09-05T19:37:07.576Z,2.28
2022-09-05T19:37:07.577Z,2.10
2022-09-05T19:37:37.312Z,2.00
2022-09-05T19:46:50.768Z,2.17
2022-09-05T19:47:41.364Z,2.20
2022-09-05T19:47:51.863Z,2.20
2022-09-05T19:48:20.313Z,2.03
2022-09-05T19:50:48.745Z,2.08
2022-09-05T19:53:19.399Z,2.15
2022-09-05T19:55:47.292Z,2.08
2022-09-05T19:58:20.777Z,2.00
2022-09-05T20:01:01.859Z,2.00
2022-09-05T20:03:38.839Z,2.17
2022-09-05T20:06:30.952Z,2.35
2022-09-05T20:09:27.850Z,2.00
2022-09-05T20:11:58.295Z,2.20
2022-09-05T20:14:32.732Z,2.10
2022-09-05T20:17:21.240Z,2.35
2022-09-05T20:19:49.007Z,2.13
2022-09-05T20:22:47.325Z,2.20
2022-09-05T20:25:41.490Z,2.20
2022-09-05T20:28:21.712Z,2.30
2022-09-05T20:30:54.255Z,2.30
2022-09-05T20:33:41.545Z,2.08
2022-09-05T20:40:59.655Z,2.40
2022-09-05T20:43:15.705Z,2.30
2022-09-05T20:43:25.126Z,2.10
2022-09-05T20:44:52.324Z,2.10
2022-09-05T20:54:04.644Z,2.38
2022-09-05T20:54:17.842Z,2.40
2022-09-05T20:54:21.731Z,2.40
2022-09-05T20:56:22.827Z,2.60
2022-09-05T20:58:51.633Z,2.30
2022-09-05T21:01:23.747Z,2.35
2022-09-05T21:04:00.721Z,2.50
2022-09-05T21:06:34.909Z,2.50
2022-09-05T21:09:12.733Z,2.50
2022-09-05T21:11:41.148Z,2.40
2022-09-05T21:14:09.043Z,2.53
2022-09-05T21:16:45.808Z,2.47
2022-09-05T21:19:29.755Z,2.50
2022-09-05T21:22:03.100Z,2.28
2022-09-05T21:24:31.116Z,2.67
2022-09-05T21:27:24.001Z,2.60
2022-09-05T21:29:58.621Z,2.60
2022-09-05T21:32:37.905Z,2.45
2022-09-05T21:35:34.469Z,2.40
2022-09-05T21:37:59.153Z,2.50
2022-09-05T21:40:26.687Z,2.40
2022-09-05T21:45:22.040Z,2.60
2022-09-05T21:47:44.089Z,3.10
2022-09-05T21:48:35.810Z,2.38
2022-09-05T21:51:08.536Z,2.60
2022-09-05T21:59:18.298Z,2.42
2022-09-05T21:59:32.701Z,2.50
2022-09-05T21:59:45.453Z,2.53
2022-09-05T22:02:16.885Z,2.80
2022-09-05T22:04:44.923Z,2.72
2022-09-05T22:07:31.695Z,3.03
2022-09-05T22:10:06.562Z,2.80
2022-09-05T22:12:39.288Z,2.47
2022-09-05T22:15:29.066Z,2.90
2022-09-05T22:18:16.629Z,2.40
2022-09-05T22:20:51.427Z,2.65
2022-09-05T22:23:38.849Z,2.58
2022-09-05T22:26:06.890Z,2.85
2022-09-05T22:28:38.510Z,2.55
2022-09-05T22:31:07.678Z,2.47
2022-09-05T22:33:36.259Z,2.88
2022-09-05T22:36:04.649Z,2.42
2022-09-05T22:38:33.430Z,2.58
2022-09-05T22:41:01.024Z,2.65
2022-09-05T22:43:33.408Z,2.33
2022-09-05T22:46:00.854Z,2.35
2022-09-05T22:48:28.397Z,2.45
2022-09-05T22:50:56.465Z,2.25
2022-09-05T22:53:24.096Z,2.60
2022-09-05T22:55:59.547Z,2.47
2022-09-05T22:58:28.187Z,2.47
2022-09-05T23:00:55.925Z,2.65
2022-09-05T23:03:23.398Z,2.70
2022-09-05T23:05:50.876Z,2.67
2022-09-05T23:08:18.290Z,2.50
2022-09-05T23:10:45.796Z,2.53
2022-09-05T23:13:13.284Z,2.70
2022-09-05T23:15:40.787Z,2.50
2022-09-05T23:18:08.280Z,2.72
2022-09-05T23:20:35.846Z,2.45
2022-09-05T23:23:05.935Z,2.53
2022-09-05T23:25:34.060Z,2.70
2022-09-05T23:28:06.578Z,2.58
2022-09-05T23:30:35.643Z,2.20
2022-09-05T23:33:06.884Z,2.60
2022-09-05T23:35:34.986Z,2.50
2022-09-05T23:38:03.190Z,2.60
2022-09-05T23:40:30.680Z,2.35
2022-09-05T23:43:01.398Z,2.60
2022-09-05T23:45:29.428Z,2.65
2022-09-05T23:47:58.176Z,2.60
2022-09-05T23:50:27.180Z,2.47
2022-09-05T23:52:54.645Z,2.65
2022-09-05T23:55:23.588Z,2.60
2022-09-05T23:57:59.512Z,2.53
